Time;durP1;ratioP1;P1;durP2;ratioP2;P2;SDS_P1;SDS_P2;PMS_P1;PMS_P2;Temp;Humidity;BMP_temperature;BMP_pressure;BME280_temperature;BME280_humidity;BME280_pressure;Samples;Min_cycle;Max_cycle;Signal;HPM_P1;HPM_P2
2021/05/21 00:00:42;;;;;;;13.30;10.53;;;;;;;10.49;62.71;100366.48;127921;1101;24166;-74
2021/05/21 00:03:14;;;;;;;13.73;11.45;;;;;;;10.49;63.13;100360.38;127902;1101;22377;-75
2021/05/21 00:05:44;;;;;;;12.33;10.73;;;;;;;10.47;63.11;100363.20;127895;1104;22381;-74
2021/05/21 00:08:14;;;;;;;13.55;11.08;;;;;;;10.42;62.91;100359.40;127931;1101;24518;-74
2021/05/21 00:10:43;;;;;;;11.80;10.28;;;;;;;10.36;63.12;100358.23;127924;1104;22382;-74
2021/05/21 00:13:13;;;;;;;13.88;11.63;;;;;;;10.29;63.20;100358.08;127962;1101;24505;-74
2021/05/21 00:15:43;;;;;;;16.38;11.98;;;;;;;10.25;63.64;100353.27;128228;1101;22370;-74
2021/05/21 00:18:12;;;;;;;14.98;11.15;;;;;;;10.23;63.64;100352.60;128196;1098;22393;-75
2021/05/21 00:20:42;;;;;;;13.70;11.70;;;;;;;10.19;64.10;100343.38;128215;1101;22354;-74
2021/05/21 00:23:11;;;;;;;15.18;12.40;;;;;;;10.17;64.65;100343.55;128288;1101;22364;-75
2021/05/21 00:25:41;;;;;;;16.75;13.30;;;;;;;10.17;64.69;100350.65;128237;1101;24070;-75
2021/05/21 00:28:11;;;;;;;13.67;12.07;;;;;;;10.15;65.08;100345.52;128250;1098;23118;-76
2021/05/21 00:30:41;;;;;;;16.30;13.65;;;;;;;10.16;65.18;100354.25;128249;1101;23209;-76
2021/05/21 00:33:10;;;;;;;16.17;13.00;;;;;;;10.15;65.56;100345.52;128222;1098;24249;-75
2021/05/21 00:35:40;;;;;;;16.05;13.55;;;;;;;10.15;65.88;100345.52;128200;1101;22352;-75
2021/05/21 00:38:09;;;;;;;14.53;12.93;;;;;;;10.16;65.82;100344.52;128245;1101;22340;-75
2021/05/21 00:40:39;;;;;;;17.93;14.38;;;;;;;10.12;65.95;100338.75;128225;1101;23291;-75
2021/05/21 00:43:09;;;;;;;16.48;14.78;;;;;;;10.11;65.95;100342.38;128193;1101;22353;-76
2021/05/21 00:45:38;;;;;;;18.50;15.70;;;;;;;10.10;66.03;100340.75;128240;1098;23179;-75
2021/05/21 00:48:09;;;;;;;21.55;17.78;;;;;;;10.02;65.93;100337.27;128182;1101;23307;-75
2021/05/21 00:50:38;;;;;;;19.70;16.73;;;;;;;9.96;66.22;100335.28;128193;1098;24804;-75
2021/05/21 00:53:11;;;;;;;20.33;15.98;;;;;;;9.93;66.54;100338.24;127900;1101;22352;-75
2021/05/21 00:55:40;;;;;;;18.00;15.75;;;;;;;9.87;66.58;100334.47;127887;1105;22430;-75
2021/05/21 00:58:10;;;;;;;17.45;15.13;;;;;;;9.82;66.90;100331.48;127947;1104;23105;-75
2021/05/21 01:00:40;;;;;;;19.73;15.73;;;;;;;9.79;66.94;100331.80;127503;1108;22424;-74
2021/05/21 01:03:09;;;;;;;18.48;15.75;;;;;;;9.73;67.35;100328.02;127617;1107;22569;-75
2021/05/21 01:05:39;;;;;;;15.00;13.20;;;;;;;9.66;66.92;100321.72;127494;1104;24354;-74
2021/05/21 01:08:09;;;;;;;17.90;14.25;;;;;;;9.62;67.41;100333.59;127521;1104;24354;-74
2021/05/21 01:10:42;;;;;;;17.10;14.13;;;;;;;9.60;67.71;100317.13;127465;1101;22410;-75
2021/05/21 01:13:12;;;;;;;17.43;13.20;;;;;;;9.56;67.34;100311.34;127928;1104;22423;-75
2021/05/21 01:15:43;;;;;;;14.83;13.18;;;;;;;9.49;67.83;100320.86;127679;1105;22481;-75
2021/05/21 01:18:12;;;;;;;18.95;13.43;;;;;;;9.44;67.93;100317.91;127918;1104;22395;-75
2021/05/21 01:20:42;;;;;;;13.95;12.23;;;;;;;9.43;68.27;100317.08;127961;1105;22343;-76
2021/05/21 01:23:13;;;;;;;14.35;12.65;;;;;;;9.42;68.38;100320.68;127936;1104;22353;-76
2021/05/21 01:25:43;;;;;;;16.25;12.60;;;;;;;9.42;68.60;100318.05;127939;1104;22386;-75
2021/05/21 01:28:15;;;;;;;15.70;12.95;;;;;;;9.37;68.39;100322.17;127958;1101;22389;-75
2021/05/21 01:30:47;;;;;;;13.83;12.23;;;;;;;9.33;68.64;100316.39;127933;1104;22369;-74
2021/05/21 01:33:17;;;;;;;15.80;12.48;;;;;;;9.29;68.71;100311.59;127938;1101;22342;-75
2021/05/21 01:35:48;;;;;;;14.40;11.47;;;;;;;9.23;68.86;100309.59;128155;1101;22351;-76
2021/05/21 01:38:18;;;;;;;13.08;11.65;;;;;;;9.21;68.85;100306.30;128186;1101;22350;-74
2021/05/21 01:40:49;;;;;;;14.13;10.98;;;;;;;9.16;69.06;100307.61;128157;1098;22677;-75
2021/05/21 01:43:19;;;;;;;10.87;9.57;;;;;;;9.12;69.19;100300.17;128244;1098;24447;-76
2021/05/21 01:45:48;;;;;;;11.53;10.35;;;;;;;9.12;69.28;100302.80;128181;1101;23166;-76
2021/05/21 01:48:18;;;;;;;13.50;10.00;;;;;;;9.09;69.43;100298.67;128125;1098;24991;-75
2021/05/21 01:50:48;;;;;;;14.25;9.43;;;;;;;9.06;69.80;100298.98;127923;1101;22333;-75
2021/05/21 01:53:17;;;;;;;11.68;9.98;;;;;;;9.02;69.78;100300.30;128181;1100;22387;-76
2021/05/21 01:55:51;;;;;;;11.63;9.35;;;;;;;9.00;69.87;100304.91;128200;1101;22339;-75
2021/05/21 01:58:20;;;;;;;11.18;9.98;;;;;;;8.98;69.99;100300.78;128259;1101;22337;-75
2021/05/21 02:00:51;;;;;;;11.97;9.93;;;;;;;8.95;70.01;100301.91;128168;1101;22340;-75
2021/05/21 02:03:20;;;;;;;10.10;8.48;;;;;;;8.93;70.09;100298.63;127992;1101;22366;-76
2021/05/21 02:05:50;;;;;;;13.05;9.70;;;;;;;8.89;70.03;100298.09;128230;1101;22448;-75
2021/05/21 02:08:25;;;;;;;10.63;9.43;;;;;;;8.85;70.18;100296.77;128205;1098;22352;-75
2021/05/21 02:10:55;;;;;;;10.33;9.33;;;;;;;8.83;70.34;100290.85;128204;1098;22340;-76
2021/05/21 02:13:25;;;;;;;11.53;9.25;;;;;;;8.85;70.65;100282.78;128193;1098;24610;-76
2021/05/21 02:15:55;;;;;;;9.98;8.98;;;;;;;8.85;70.59;100278.33;128168;1101;22349;-76
2021/05/21 02:18:24;;;;;;;15.33;8.98;;;;;;;8.86;70.65;100277.37;128180;1098;23297;-76
2021/05/21 02:20:54;;;;;;;10.73;8.93;;;;;;;8.88;70.65;100279.83;127943;1102;22339;-76
2021/05/21 02:23:24;;;;;;;11.90;9.40;;;;;;;8.90;70.78;100288.41;128168;1101;22341;-75
2021/05/21 02:25:54;;;;;;;10.68;9.58;;;;;;;8.88;70.64;100283.28;128220;1101;22374;-75
2021/05/21 02:28:23;;;;;;;10.88;9.80;;;;;;;8.91;70.82;100292.69;128188;1101;23118;-76
2021/05/21 02:30:53;;;;;;;12.40;9.58;;;;;;;8.90;70.77;100280.51;128214;1101;22446;-75
2021/05/21 02:33:23;;;;;;;9.50;8.53;;;;;;;8.86;70.66;100285.27;128198;1098;22358;-75
2021/05/21 02:35:53;;;;;;;10.35;9.35;;;;;;;8.82;70.65;100286.55;128208;1101;23296;-76
2021/05/21 02:38:23;;;;;;;9.80;8.78;;;;;;;8.77;70.72;100286.20;128197;1098;24475;-75
2021/05/21 02:40:53;;;;;;;16.55;8.65;;;;;;;8.74;70.68;100283.88;128198;1098;22364;-75
2021/05/21 02:43:22;;;;;;;10.15;9.25;;;;;;;8.72;70.86;100280.57;128173;1101;22348;-75
2021/05/21 02:45:52;;;;;;;9.40;8.50;;;;;;;8.70;71.03;100278.11;128209;1101;22353;-75
2021/05/21 02:48:21;;;;;;;10.78;9.80;;;;;;;8.66;70.77;100270.66;128188;1101;22370;-75
2021/05/21 02:50:51;;;;;;;11.63;9.40;;;;;;;8.62;70.95;100274.59;128223;1098;24617;-75
2021/05/21 02:53:21;;;;;;;10.83;9.73;;;;;;;8.59;70.99;100274.91;128191;1101;22466;-76
2021/05/21 02:55:51;;;;;;;12.75;11.45;;;;;;;8.57;71.14;100274.26;128208;1098;24273;-76
2021/05/21 02:58:21;;;;;;;9.63;8.70;;;;;;;8.54;71.17;100269.30;128185;1101;23074;-75
2021/05/21 03:00:51;;;;;;;10.35;9.28;;;;;;;8.51;71.01;100261.72;128033;1101;22347;-76
2021/05/21 03:03:20;;;;;;;10.05;8.53;;;;;;;8.49;71.17;100264.48;128223;1098;24491;-77
2021/05/21 03:05:51;;;;;;;10.28;9.20;;;;;;;8.45;71.33;100263.98;128238;1098;24613;-77
2021/05/21 03:08:21;;;;;;;10.53;9.55;;;;;;;8.45;71.68;100263.98;128181;1101;22358;-76
2021/05/21 03:10:50;;;;;;;10.28;8.10;;;;;;;8.51;71.68;100259.08;128066;1098;22417;-76
2021/05/21 03:13:25;;;;;;;12.48;9.78;;;;;;;8.51;71.68;100257.27;128106;1101;22297;-75
2021/05/21 03:15:55;;;;;;;9.10;8.20;;;;;;;8.53;71.69;100252.69;128157;1101;22353;-76
2021/05/21 03:18:26;;;;;;;9.63;8.60;;;;;;;8.54;71.64;100251.69;128108;1098;22357;-76
2021/05/21 03:20:56;;;;;;;16.70;15.03;;;;;;;8.61;72.02;100247.45;128176;1101;22349;-76
2021/05/21 03:23:26;;;;;;;10.95;9.33;;;;;;;8.67;71.82;100249.45;128004;1101;22382;-76
2021/05/21 03:25:57;;;;;;;10.28;7.95;;;;;;;8.71;71.74;100256.05;128158;1101;22358;-76
2021/05/21 03:28:27;;;;;;;9.20;8.30;;;;;;;8.75;71.78;100259.19;128219;1098;22347;-76
2021/05/21 03:30:57;;;;;;;10.37;8.50;;;;;;;8.81;71.52;100249.84;128209;1101;22346;-76
2021/05/21 03:33:26;;;;;;;10.45;8.85;;;;;;;8.87;71.88;100257.93;128226;1098;22360;-76
2021/05/21 03:35:56;;;;;;;9.75;8.75;;;;;;;8.92;71.58;100250.36;128218;1098;24870;-76
2021/05/21 03:38:28;;;;;;;;;;;;;;;8.91;71.49;100246.09;128194;1098;24485;-76
2021/05/21 03:40:58;;;;;;;10.30;9.30;;;;;;;8.93;71.68;100253.84;128210;1101;21274;-76
2021/05/21 03:43:27;;;;;;;10.40;9.30;;;;;;;9.05;71.78;100247.28;128184;1101;22367;-76
2021/05/21 03:45:57;;;;;;;10.55;9.08;;;;;;;9.14;71.44;100243.69;128245;1101;23132;-76
2021/05/21 03:48:26;;;;;;;12.58;9.55;;;;;;;9.21;71.30;100246.50;128215;1098;22395;-76
2021/05/21 03:50:57;;;;;;;12.15;10.95;;;;;;;9.27;71.14;100243.22;128219;1101;22385;-76
2021/05/21 03:53:27;;;;;;;13.33;10.70;;;;;;;9.35;70.97;100239.77;128342;1101;22452;-79
2021/05/21 03:55:58;;;;;;;14.33;10.08;;;;;;;9.42;70.93;100246.86;128061;1098;22435;-79
2021/05/21 03:58:28;;;;;;;15.25;9.95;;;;;;;9.53;70.85;100232.55;128255;1101;22355;-78
2021/05/21 04:00:58;;;;;;;10.98;9.33;;;;;;;9.64;70.68;100234.86;127958;1104;22355;-78
2021/05/21 04:03:28;;;;;;;9.35;8.45;;;;;;;9.74;70.55;100232.05;127620;1103;22528;-79
2021/05/21 04:05:58;;;;;;;11.83;8.85;;;;;;;9.84;70.27;100240.63;127054;1108;25044;-78
2021/05/21 04:08:29;;;;;;;10.53;8.07;;;;;;;9.95;69.97;100238.64;127478;1106;22406;-77
2021/05/21 04:10:59;;;;;;;8.40;7.48;;;;;;;10.06;69.83;100238.28;126997;1106;22457;-77
2021/05/21 04:13:29;;;;;;;9.55;8.55;;;;;;;10.14;69.43;100236.47;126947;1108;24224;-78
2021/05/21 04:15:59;;;;;;;11.83;9.00;;;;;;;10.20;69.05;100226.25;126959;1108;22455;-78
2021/05/21 04:18:29;;;;;;;9.73;8.83;;;;;;;10.21;68.79;100235.80;126999;1109;23070;-78
2021/05/21 04:20:58;;;;;;;11.58;8.83;;;;;;;10.20;68.50;100237.63;127031;1108;22406;-78
2021/05/21 04:23:28;;;;;;;12.08;9.35;;;;;;;10.20;68.61;100234.98;126930;1111;22602;-78
2021/05/21 04:26:03;;;;;;;10.33;9.25;;;;;;;10.24;68.61;100236.29;126995;1108;22475;-79
2021/05/21 04:28:39;;;;;;;12.85;10.50;;;;;;;10.28;68.42;100227.06;127048;1106;22481;-79
2021/05/21 04:31:09;;;;;;;11.95;9.25;;;;;;;10.33;68.58;100229.22;127315;1104;22510;-76
2021/05/21 04:33:42;;;;;;;10.73;9.63;;;;;;;10.36;68.36;100223.57;127942;1104;22467;-78
2021/05/21 04:36:15;;;;;;;11.23;10.23;;;;;;;10.38;68.08;100226.05;127571;1107;22814;-79
2021/05/21 04:38:48;;;;;;;9.60;8.68;;;;;;;10.43;68.39;100229.00;127489;1106;23147;-78
2021/05/21 04:41:18;;;;;;;11.67;9.47;;;;;;;10.47;68.38;100220.59;127561;1105;22449;-79
2021/05/21 04:43:50;;;;;;;13.23;9.60;;;;;;;10.52;68.26;100218.23;127964;1101;22385;-78
2021/05/21 04:46:22;;;;;;;12.73;10.45;;;;;;;10.51;67.81;100227.16;128013;1104;22482;-78
2021/05/21 04:48:52;;;;;;;14.05;10.13;;;;;;;10.51;68.01;100224.52;127581;1103;22381;-78
2021/05/21 04:51:25;;;;;;;14.60;12.53;;;;;;;10.58;68.45;100222.84;127608;1104;22401;-79
2021/05/21 04:54:02;;;;;;;12.88;11.63;;;;;;;10.72;68.61;100220.48;127559;1104;22358;-79
2021/05/21 04:56:34;;;;;;;12.78;11.48;;;;;;;10.91;68.64;100209.50;127951;1102;24990;-79
2021/05/21 04:59:07;;;;;;;15.68;12.28;;;;;;;11.17;68.58;100201.25;127643;1105;22356;-78
2021/05/21 05:01:37;;;;;;;12.63;10.35;;;;;;;11.47;68.41;100196.91;127535;1105;22427;-79
2021/05/21 05:04:07;;;;;;;11.90;9.90;;;;;;;11.78;68.12;100183.56;127569;1105;22494;-79
2021/05/21 05:06:39;;;;;;;9.20;8.40;;;;;;;12.08;67.18;100194.23;127567;1105;22380;-79
2021/05/21 05:09:10;;;;;;;10.70;9.37;;;;;;;12.35;66.40;100187.48;127496;1104;24295;-78
2021/05/21 05:11:42;;;;;;;11.85;9.30;;;;;;;12.47;64.89;100183.38;127501;1104;22773;-79
2021/05/21 05:14:13;;;;;;;14.68;10.10;;;;;;;12.58;64.25;100182.07;127605;1101;22404;-77
2021/05/21 05:16:43;;;;;;;12.95;9.10;;;;;;;12.62;63.90;100183.34;127952;1104;22378;-78
2021/05/21 05:19:12;;;;;;;13.90;11.68;;;;;;;12.70;63.51;100185.91;127922;1101;24252;-78
2021/05/21 05:21:44;;;;;;;12.15;10.78;;;;;;;12.86;63.63;100197.28;127891;1101;22429;-78
2021/05/21 05:24:20;;;;;;;12.85;10.58;;;;;;;13.03;63.19;100184.62;127927;1104;22388;-77
2021/05/21 05:26:51;;;;;;;15.33;11.25;;;;;;;13.24;63.17;100189.98;128010;1098;24227;-78
2021/05/21 05:29:21;;;;;;;10.80;9.70;;;;;;;13.53;63.00;100185.54;128060;1101;22367;-77
2021/05/21 05:31:50;;;;;;;10.88;8.63;;;;;;;13.84;62.60;100183.36;127976;1101;22336;-77
2021/05/21 05:34:20;;;;;;;13.48;7.03;;;;;;;14.18;61.94;100192.37;128300;1101;22440;-76
2021/05/21 05:36:50;;;;;;;8.05;6.90;;;;;;;14.43;60.90;100194.54;128116;1098;24244;-78
2021/05/21 05:39:21;;;;;;;11.03;7.98;;;;;;;14.57;59.50;100191.80;128024;1102;24157;-78
2021/05/21 05:41:51;;;;;;;14.75;10.10;;;;;;;14.70;59.34;100192.88;127946;1104;22367;-74
2021/05/21 05:44:21;;;;;;;10.13;7.88;;;;;;;14.86;58.67;100189.88;127370;1108;22464;-74
2021/05/21 05:46:51;;;;;;;9.50;7.93;;;;;;;14.98;58.54;100198.89;127455;1107;22382;-74
2021/05/21 05:49:21;;;;;;;9.33;7.83;;;;;;;15.25;58.64;100196.30;127437;1108;22364;-74
2021/05/21 05:51:50;;;;;;;13.53;7.80;;;;;;;15.65;58.40;100197.16;127436;1105;24501;-74
2021/05/21 05:54:20;;;;;;;10.03;8.78;;;;;;;16.12;57.66;100191.83;127374;1105;23460;-74
2021/05/21 05:56:49;;;;;;;8.08;6.85;;;;;;;16.74;56.72;100184.27;127017;1108;22349;-74
2021/05/21 05:59:20;;;;;;;10.20;6.50;;;;;;;17.21;54.50;100188.34;127407;1105;24536;-74
2021/05/21 06:01:49;;;;;;;7.90;6.25;;;;;;;17.55;53.28;100188.92;127476;1104;22359;-74
2021/05/21 06:04:19;;;;;;;12.40;6.60;;;;;;;17.81;52.19;100182.58;127901;1104;22367;-74
2021/05/21 06:06:49;;;;;;;9.10;5.93;;;;;;;17.84;50.96;100182.14;127944;1101;22371;-75
2021/05/21 06:09:19;;;;;;;9.17;5.73;;;;;;;18.06;51.32;100180.70;127916;1104;22375;-74
2021/05/21 06:11:52;;;;;;;7.55;5.30;;;;;;;18.20;49.45;100178.71;127889;1099;22825;-75
2021/05/21 06:14:24;;;;;;;6.23;4.98;;;;;;;18.36;49.79;100166.61;127921;1101;24268;-75
2021/05/21 06:16:54;;;;;;;7.90;4.70;;;;;;;18.60;48.68;100166.75;128020;1098;24167;-74
2021/05/21 06:19:24;;;;;;;9.65;6.70;;;;;;;18.96;48.35;100155.16;127903;1101;24559;-74
2021/05/21 06:21:53;;;;;;;8.68;5.35;;;;;;;19.23;47.47;100151.06;127903;1101;22369;-74
2021/05/21 06:24:25;;;;;;;7.38;4.78;;;;;;;19.64;47.70;100146.72;127878;1104;22383;-76
2021/05/21 06:29:43;;;;;;;5.28;4.60;;;;;;;20.45;45.83;100144.17;127429;1102;22395;-75
2021/05/21 06:32:12;;;;;;;7.40;4.63;;;;;;;20.83;44.61;100146.30;127450;1105;22383;-75
2021/05/21 06:34:42;;;;;;;8.10;4.33;;;;;;;21.03;43.64;100139.67;127521;1105;22378;-75
2021/05/21 06:37:23;;;;;;;6.05;4.03;;;;;;;21.18;43.27;100136.42;127540;1101;24501;-76
2021/05/21 06:40:10;;;;;;;6.00;4.20;;;;;;;21.41;42.65;100135.50;127930;1104;23330;-76
2021/05/21 06:42:40;;;;;;;5.65;4.95;;;;;;;21.65;42.78;100128.06;128009;1101;22383;-73
2021/05/21 06:45:11;;;;;;;6.13;4.23;;;;;;;21.80;41.24;100128.30;128108;1101;22349;-75
2021/05/21 06:47:41;;;;;;;24.90;21.58;;;;;;;21.95;41.65;100119.63;128310;1101;22339;-75
2021/05/21 06:50:12;;;;;;;11.38;5.18;;;;;;;22.37;40.89;100122.61;128206;1101;22347;-75
2021/05/21 06:52:42;;;;;;;12.88;3.83;;;;;;;22.40;39.17;100119.42;127979;1098;24160;-75
2021/05/21 06:55:13;;;;;;;4.35;3.33;;;;;;;22.12;38.32;100114.19;128236;1101;22364;-74
2021/05/21 06:57:43;;;;;;;3.48;2.98;;;;;;;21.97;38.72;100107.56;128199;1101;22350;-74
2021/05/21 07:00:13;;;;;;;6.40;3.48;;;;;;;22.01;39.30;100105.18;128261;1101;22461;-74
2021/05/21 07:02:43;;;;;;;4.83;3.67;;;;;;;22.07;38.31;100098.81;128220;1101;22351;-76
2021/05/21 07:05:14;;;;;;;4.13;2.93;;;;;;;22.17;38.40;100098.97;128234;1098;24505;-75
2021/05/21 07:07:46;;;;;;;6.63;3.88;;;;;;;22.39;37.92;100093.59;128197;1101;22458;-75
2021/05/21 07:10:16;;;;;;;5.98;2.90;;;;;;;22.59;37.58;100103.73;128249;1098;24345;-75
2021/05/21 07:12:46;;;;;;;4.80;3.25;;;;;;;22.64;36.93;100097.61;128216;1101;22819;-75
2021/05/21 07:15:15;;;;;;;6.78;2.90;;;;;;;22.48;36.53;100085.86;128252;1101;22347;-77
2021/05/21 07:17:46;;;;;;;5.50;3.35;;;;;;;22.30;36.79;100081.63;128256;1101;22453;-77
2021/05/21 07:20:16;;;;;;;5.55;2.78;;;;;;;22.31;36.80;100069.80;128173;1098;22456;-75
2021/05/21 07:22:45;;;;;;;3.83;3.30;;;;;;;22.35;36.93;100075.48;128230;1098;22337;-76
2021/05/21 07:25:15;;;;;;;6.13;3.53;;;;;;;22.40;36.39;100075.55;128208;1101;22367;-78
2021/05/21 07:27:46;;;;;;;5.80;3.00;;;;;;;22.63;36.34;100071.77;128262;1101;22367;-77
2021/05/21 07:30:17;;;;;;;3.85;3.15;;;;;;;22.57;35.41;100064.70;128215;1101;22372;-77
2021/05/21 07:32:47;;;;;;;5.37;2.73;;;;;;;22.57;35.34;100073.58;128219;1101;22388;-77
2021/05/21 07:35:17;;;;;;;5.55;3.05;;;;;;;22.64;34.79;100057.22;128191;1101;22352;-78
2021/05/21 07:37:47;;;;;;;5.00;2.78;;;;;;;22.83;34.94;100063.88;128265;1098;22350;-76
2021/05/21 07:40:18;;;;;;;5.58;3.73;;;;;;;23.01;34.89;100068.09;128257;1098;22662;-77
2021/05/21 07:42:48;;;;;;;7.50;3.50;;;;;;;23.15;34.79;100063.88;128350;1101;22355;-77
2021/05/21 07:45:21;;;;;;;5.88;3.63;;;;;;;23.24;34.72;100059.64;128195;1100;22364;-77
2021/05/21 07:47:51;;;;;;;8.05;3.30;;;;;;;23.55;34.96;100049.06;128252;1101;22365;-76
2021/05/21 07:50:20;;;;;;;8.88;3.50;;;;;;;23.74;34.13;100049.47;128198;1101;22299;-77
2021/05/21 07:52:50;;;;;;;8.33;4.18;;;;;;;23.83;33.13;100058.70;128041;1099;24485;-76
2021/05/21 07:55:20;;;;;;;4.78;2.90;;;;;;;23.73;33.41;100050.55;128014;1100;22416;-77
2021/05/21 07:57:50;;;;;;;8.13;3.03;;;;;;;23.79;33.29;100046.81;127974;1101;22353;-76
2021/05/21 08:00:21;;;;;;;7.25;4.83;;;;;;;23.99;33.09;100042.55;128178;1101;22363;-75
2021/05/21 08:02:50;;;;;;;5.18;4.10;;;;;;;24.22;32.76;100050.19;128126;1101;22352;-76
2021/05/21 08:05:22;;;;;;;5.15;2.33;;;;;;;24.14;31.33;100037.23;128204;1101;22546;-76
2021/05/21 08:07:51;;;;;;;;;;;;;;;24.05;31.61;100038.81;128185;1101;22354;-76
2021/05/21 08:10:21;;;;;;;4.10;2.30;;;;;;;24.23;32.20;100032.13;127950;1101;21281;-75
2021/05/21 08:12:51;;;;;;;6.03;2.63;;;;;;;24.40;32.16;100030.84;128208;1098;22350;-77
2021/05/21 08:15:21;;;;;;;4.35;2.88;;;;;;;24.49;31.74;100024.91;128175;1101;22362;-77
2021/05/21 08:17:51;;;;;;;5.78;2.53;;;;;;;24.55;31.68;100021.14;128165;1101;22365;-77
2021/05/21 08:20:22;;;;;;;9.00;2.30;;;;;;;24.63;30.97;100029.53;127940;1101;24585;-76
2021/05/21 08:22:52;;;;;;;5.45;2.20;;;;;;;24.53;30.92;100017.92;127881;1101;22431;-75
2021/05/21 08:25:23;;;;;;;4.28;2.13;;;;;;;24.55;30.56;100015.74;128023;1104;22352;-76
2021/05/21 08:27:53;;;;;;;2.63;2.23;;;;;;;24.61;30.86;100020.88;127905;1104;22374;-76
2021/05/21 08:30:24;;;;;;;3.50;1.98;;;;;;;24.47;30.46;100013.59;127947;1104;22502;-76
2021/05/21 08:32:54;;;;;;;3.85;2.23;;;;;;;24.45;30.51;100016.53;127539;1105;22476;-76
2021/05/21 08:35:24;;;;;;;6.18;2.73;;;;;;;24.53;30.94;100015.22;127891;1104;22387;-75
2021/05/21 08:37:54;;;;;;;6.33;1.70;;;;;;;24.67;30.65;100000.09;127855;1104;22399;-75
2021/05/21 08:40:27;;;;;;;4.70;2.80;;;;;;;24.99;30.49;99994.42;127913;1104;22357;-76
2021/05/21 08:42:59;;;;;;;4.53;1.88;;;;;;;25.11;29.19;99996.83;127905;1103;22377;-75
2021/05/21 08:45:29;;;;;;;6.00;1.83;;;;;;;25.26;29.87;99996.84;127917;1104;22358;-75
2021/05/21 08:48:01;;;;;;;4.55;1.53;;;;;;;25.53;29.46;99976.76;128017;1100;24649;-77
2021/05/21 08:50:31;;;;;;;3.55;2.13;;;;;;;25.76;28.99;99997.77;127918;1104;22374;-81
2021/05/21 08:53:01;;;;;;;2.38;1.58;;;;;;;25.60;28.79;99988.09;128089;1104;22366;-78
2021/05/21 08:55:33;;;;;;;3.90;1.60;;;;;;;25.50;28.50;99988.93;128057;1098;22367;-77
2021/05/21 08:58:10;;;;;;;6.68;2.30;;;;;;;25.51;29.22;99976.22;128227;1098;24328;-77
2021/05/21 09:00:41;;;;;;;4.35;1.48;;;;;;;25.47;28.41;99981.37;128271;1096;22362;-76
2021/05/21 09:03:26;;;;;;;2.18;1.60;;;;;;;25.48;28.76;99982.97;128269;1098;22382;-76
2021/05/21 09:06:20;;;;;;;8.30;2.10;;;;;;;25.48;28.22;99976.77;128028;1103;22369;-76
2021/05/21 09:08:55;;;;;;;4.20;1.60;;;;;;;25.43;28.21;99957.87;127986;1104;23332;-76
2021/05/21 09:11:39;;;;;;;4.05;1.50;;;;;;;25.48;28.03;99965.95;127992;1104;22419;-76
2021/05/21 09:14:12;;;;;;;2.43;1.17;;;;;;;25.27;27.69;99955.20;128043;1104;22793;-77
2021/05/21 09:16:43;;;;;;;7.20;2.00;;;;;;;25.42;27.89;99959.73;128037;1104;22927;-76
2021/05/21 09:19:21;;;;;;;6.48;1.88;;;;;;;25.19;27.45;99950.37;128031;1104;22432;-76
2021/05/21 09:22:11;;;;;;;8.58;1.28;;;;;;;25.18;27.39;99948.73;128032;1104;22383;-76
2021/05/21 09:24:47;;;;;;;7.73;1.30;;;;;;;24.70;26.51;99942.03;128141;1101;22365;-76
2021/05/21 09:27:19;;;;;;;2.30;1.20;;;;;;;24.49;27.12;99943.91;128159;1101;22350;-75
2021/05/21 09:29:56;;;;;;;9.28;1.18;;;;;;;24.58;27.75;99934.19;128250;1101;22340;-76
2021/05/21 09:32:34;;;;;;;2.15;0.80;;;;;;;24.95;27.23;99936.58;128232;1098;25336;-76
2021/05/21 09:35:15;;;;;;;4.08;1.00;;;;;;;25.15;26.98;99919.55;128241;1101;22352;-76
2021/05/21 09:37:52;;;;;;;6.45;1.05;;;;;;;25.36;27.16;99914.90;127997;1104;22375;-76
2021/05/21 09:40:28;;;;;;;4.50;0.83;;;;;;;25.19;26.26;99911.69;127975;1104;22916;-76
2021/05/21 09:43:05;;;;;;;2.28;0.90;;;;;;;24.88;26.70;99901.73;127990;1101;24366;-75
2021/05/21 09:45:45;;;;;;;3.58;1.35;;;;;;;24.86;27.66;99901.22;128007;1100;24366;-76
2021/05/21 09:48:16;;;;;;;6.75;1.48;;;;;;;24.48;27.24;99901.80;127963;1104;22436;-76
2021/05/21 09:50:51;;;;;;;3.00;1.40;;;;;;;24.24;28.15;99896.91;128090;1104;22352;-76
2021/05/21 09:53:26;;;;;;;4.37;1.40;;;;;;;24.52;28.96;99897.47;128422;1101;24581;-75
2021/05/21 09:56:02;;;;;;;4.95;1.80;;;;;;;24.96;28.50;99897.69;128044;1098;24227;-76
2021/05/21 09:58:52;;;;;;;2.50;1.00;;;;;;;25.22;27.78;99889.52;128283;1101;22406;-76
2021/05/21 10:01:23;;;;;;;7.53;1.30;;;;;;;25.26;27.30;99899.52;128223;1101;22323;-75
2021/05/21 10:03:56;;;;;;;6.57;1.27;;;;;;;24.72;27.11;99881.23;128237;1098;22348;-76
2021/05/21 10:06:28;;;;;;;2.53;1.20;;;;;;;24.18;27.59;99871.80;128309;1101;22348;-77
2021/05/21 10:09:00;;;;;;;5.48;1.43;;;;;;;24.23;28.20;99864.80;128242;1098;22332;-76
2021/05/21 10:11:32;;;;;;;19.08;3.50;;;;;;;24.02;27.70;99866.66;128226;1100;22360;-76
2021/05/21 10:14:02;;;;;;;3.98;1.38;;;;;;;23.64;27.92;99866.84;128227;1097;24240;-76
2021/05/21 10:16:32;;;;;;;6.45;1.33;;;;;;;23.31;28.17;99851.09;128213;1097;22356;-76
2021/05/21 10:19:03;;;;;;;7.13;2.03;;;;;;;23.14;29.03;99854.00;127970;1101;22806;-76
2021/05/21 10:21:35;;;;;;;4.25;1.60;;;;;;;23.23;28.91;99864.02;127998;1101;22268;-75
2021/05/21 10:24:07;;;;;;;4.83;1.73;;;;;;;23.16;28.94;99854.56;127958;1101;22353;-76
2021/05/21 10:26:40;;;;;;;5.58;1.85;;;;;;;22.95;28.82;99857.13;128058;1101;24255;-76
2021/05/21 10:29:21;;;;;;;3.03;1.50;;;;;;;23.04;29.32;99853.95;127970;1101;22529;-76
2021/05/21 10:31:53;;;;;;;3.38;1.33;;;;;;;23.23;28.99;99855.13;128257;1101;24516;-75
2021/05/21 10:34:23;;;;;;;4.83;1.20;;;;;;;23.18;28.71;99857.78;128048;1101;22687;-76
2021/05/21 10:37:32;;;;;;;2.45;1.28;;;;;;;23.05;29.32;99850.17;128006;1101;22443;-76
2021/05/21 10:40:29;;;;;;;2.55;1.43;;;;;;;22.87;29.57;99836.05;128252;1101;22358;-75
2021/05/21 10:43:24;;;;;;;5.13;1.60;;;;;;;22.53;29.59;99836.40;128203;1097;24463;-76
2021/05/21 10:46:20;;;;;;;3.85;1.53;;;;;;;22.03;29.53;99816.08;128194;1101;24244;-76
2021/05/21 10:49:02;;;;;;;5.45;1.10;;;;;;;21.77;30.78;99814.23;128333;1101;22327;-76
2021/05/21 10:51:55;;;;;;;2.58;1.10;;;;;;;21.68;30.60;99808.49;128223;1101;22692;-76
2021/05/21 10:54:33;;;;;;;2.50;1.30;;;;;;;21.78;30.94;99799.72;128197;1098;24217;-76
2021/05/21 10:57:31;;;;;;;8.68;2.03;;;;;;;21.82;30.31;99807.00;128312;1098;22341;-75
2021/05/21 11:00:01;;;;;;;7.93;1.60;;;;;;;21.76;30.38;99797.30;127953;1101;22470;-76
2021/05/21 11:03:03;;;;;;;4.73;1.48;;;;;;;21.73;31.02;99792.42;128182;1101;24174;-75
2021/05/21 11:05:35;;;;;;;7.58;1.08;;;;;;;21.66;31.25;99799.89;127510;1107;22690;-75
2021/05/21 11:08:11;;;;;;;5.20;1.30;;;;;;;21.49;31.27;99785.72;127529;1105;24591;-78
2021/05/21 11:10:44;;;;;;;5.98;1.40;;;;;;;21.27;31.55;99775.80;127461;1107;22424;-75
2021/05/21 11:13:16;;;;;;;4.28;1.40;;;;;;;21.24;32.04;99780.87;127409;1106;22325;-76
2021/05/21 11:15:52;;;;;;;8.48;1.60;;;;;;;21.08;31.87;99793.30;127090;1108;22388;-76
2021/05/21 11:18:23;;;;;;;6.85;1.40;;;;;;;21.08;33.03;99778.00;127082;1106;22380;-75
2021/05/21 11:21:17;;;;;;;3.45;1.63;;;;;;;21.14;33.00;99776.19;127476;1108;22381;-76
2021/05/21 11:24:05;;;;;;;4.65;1.60;;;;;;;21.22;32.59;99775.73;126916;1108;24338;-75
2021/05/21 11:26:41;;;;;;;2.68;0.85;;;;;;;21.16;32.09;99771.39;126930;1108;22373;-77
2021/05/21 11:29:18;;;;;;;4.28;1.38;;;;;;;21.09;32.23;99768.90;126888;1111;22501;-73
2021/05/21 11:31:50;;;;;;;3.30;1.40;;;;;;;20.90;31.85;99765.72;126624;1111;24517;-77
2021/05/21 11:34:20;;;;;;;3.58;1.70;;;;;;;20.95;31.95;99758.77;126595;1110;24538;-76
2021/05/21 11:36:56;;;;;;;10.93;1.98;;;;;;;21.09;32.10;99757.32;126908;1111;22392;-76
2021/05/21 11:39:26;;;;;;;2.70;1.23;;;;;;;21.31;31.80;99752.73;126991;1108;22397;-78
2021/05/21 11:41:57;;;;;;;6.77;1.80;;;;;;;21.47;31.12;99753.73;127269;1108;22389;-77